createdAt,value
2023-04-01T00:02:25.302Z,1.80
2023-04-01T00:04:52.166Z,1.58
2023-04-01T00:07:18.910Z,1.73
2023-04-01T00:09:45.724Z,1.40
2023-04-01T00:12:12.525Z,2.00
2023-04-01T00:14:40.829Z,1.80
2023-04-01T00:17:07.829Z,1.65
2023-04-01T00:19:35.927Z,1.90
2023-04-01T00:22:03.047Z,1.40
2023-04-01T00:24:30.018Z,1.70
2023-04-01T00:26:56.804Z,1.90
2023-04-01T00:29:25.163Z,1.60
2023-04-01T00:31:52.042Z,1.73
2023-04-01T00:34:18.856Z,1.95
2023-04-01T00:36:45.821Z,1.40
2023-04-01T00:39:12.606Z,1.60
2023-04-01T00:41:39.498Z,1.50
2023-04-01T00:44:17.380Z,1.83
2023-04-01T00:46:44.316Z,1.40
2023-04-01T00:49:11.265Z,1.55
2023-04-01T00:51:40.046Z,1.83
2023-04-01T00:54:08.795Z,1.80
2023-04-01T00:56:43.177Z,1.55
2023-04-01T00:59:17.278Z,1.65
2023-04-01T01:01:44.115Z,1.65
2023-04-01T01:04:29.576Z,1.92
2023-04-01T01:07:25.559Z,1.58
2023-04-01T01:10:07.725Z,1.10
2023-04-01T01:13:09.849Z,1.80
2023-04-01T01:15:36.682Z,1.65
2023-04-01T01:18:12.881Z,2.00
2023-04-01T01:20:58.440Z,1.65
2023-04-01T01:23:37.594Z,1.70
2023-04-01T01:26:38.531Z,1.80
2023-04-01T01:29:17.482Z,1.60
2023-04-01T01:32:06.880Z,1.63
2023-04-01T01:34:48.985Z,1.40
2023-04-01T01:37:21.802Z,2.10
2023-04-01T01:39:56.279Z,1.67
2023-04-01T01:42:25.761Z,1.90
2023-04-01T01:44:55.412Z,1.70
2023-04-01T01:47:23.347Z,1.77
2023-04-01T01:49:52.296Z,1.50
2023-04-01T01:52:19.409Z,2.15
2023-04-01T01:54:51.670Z,2.05
2023-04-01T01:57:23.643Z,2.00
2023-04-01T01:59:56.729Z,1.90
2023-04-01T02:02:28.485Z,1.67
2023-04-01T02:04:55.778Z,1.90
2023-04-01T02:07:32.505Z,1.75
2023-04-01T02:10:00.463Z,1.70
2023-04-01T02:12:29.957Z,2.47
2023-04-01T02:15:06.320Z,3.28
2023-04-01T02:17:35.374Z,4.53
2023-04-01T02:20:08.834Z,4.00
2023-04-01T02:22:40.307Z,2.25
2023-04-01T02:25:10.673Z,2.08
2023-04-01T02:27:38.470Z,1.60
2023-04-01T02:30:06.101Z,2.13
2023-04-01T02:32:35.689Z,1.88
2023-04-01T02:35:06.885Z,1.77
2023-04-01T02:37:35.582Z,1.90
2023-04-01T02:40:07.545Z,2.20
2023-04-01T02:42:35.464Z,1.92
2023-04-01T02:45:02.994Z,2.03
2023-04-01T02:47:30.639Z,1.80
2023-04-01T02:49:59.670Z,1.75
2023-04-01T02:52:27.373Z,1.92
2023-04-01T02:54:54.737Z,2.00
2023-04-01T02:57:22.027Z,2.08
2023-04-01T02:59:48.921Z,1.98
2023-04-01T03:02:16.729Z,2.00
2023-04-01T03:04:43.983Z,1.92
2023-04-01T03:07:11.551Z,2.05
2023-04-01T03:09:39.408Z,1.90
2023-04-01T03:12:07.013Z,2.20
2023-04-01T03:14:43.720Z,2.40
2023-04-01T03:17:10.799Z,2.10
2023-04-01T03:19:37.728Z,2.10
2023-04-01T03:22:11.921Z,2.05
2023-04-01T03:24:38.862Z,2.15
2023-04-01T03:27:05.575Z,2.28
2023-04-01T03:29:32.473Z,1.95
2023-04-01T03:31:59.949Z,2.30
2023-04-01T03:34:27.600Z,2.10
2023-04-01T03:36:55.671Z,2.30
2023-04-01T03:39:22.995Z,2.50
2023-04-01T03:41:51.037Z,2.08
2023-04-01T03:44:17.969Z,2.20
2023-04-01T03:49:15.691Z,2.88
2023-04-01T03:51:44.294Z,2.20
2023-04-01T03:54:12.141Z,2.30
2023-04-01T03:56:39.618Z,2.90
2023-04-01T03:59:08.733Z,2.30
2023-04-01T04:01:35.877Z,2.20
2023-04-01T04:04:02.744Z,2.35
2023-04-01T04:06:29.763Z,2.15
2023-04-01T04:08:56.640Z,2.45
2023-04-01T04:11:24.049Z,2.28
2023-04-01T04:13:53.645Z,2.40
2023-04-01T04:16:20.997Z,2.40
2023-04-01T04:18:54.497Z,2.47
2023-04-01T04:21:21.323Z,2.30
2023-04-01T04:23:48.728Z,2.30
2023-04-01T04:26:18.323Z,2.50
2023-04-01T04:28:52.116Z,2.30
2023-04-01T04:31:22.522Z,2.35
2023-04-01T04:33:51.146Z,2.40
2023-04-01T04:36:18.949Z,2.30
2023-04-01T04:38:46.833Z,2.38
2023-04-01T04:41:15.318Z,2.83
2023-04-01T04:43:51.393Z,2.80
2023-04-01T04:46:18.885Z,2.35
2023-04-01T04:48:46.698Z,5.05
2023-04-01T04:51:16.618Z,19.38
2023-04-01T04:53:43.709Z,6.82
2023-04-01T04:56:10.637Z,3.47
2023-04-01T04:58:43.941Z,3.40
2023-04-01T05:01:17.812Z,3.42
2023-04-01T05:03:45.886Z,2.95
2023-04-01T05:06:14.837Z,2.90
2023-04-01T05:08:43.805Z,3.58
2023-04-01T05:11:14.205Z,4.20
2023-04-01T05:13:43.989Z,4.78
2023-04-01T05:16:12.710Z,4.18
2023-04-01T05:18:40.332Z,3.70
2023-04-01T05:21:09.531Z,3.70
2023-04-01T05:23:37.188Z,3.50
2023-04-01T05:26:06.137Z,3.78
2023-04-01T05:28:34.371Z,4.18
2023-04-01T05:31:02.421Z,3.72
2023-04-01T05:33:36.011Z,3.85
2023-04-01T05:36:08.799Z,4.68
2023-04-01T05:38:35.863Z,4.50
2023-04-01T05:41:03.932Z,4.88
2023-04-01T05:43:32.218Z,5.25
2023-04-01T05:46:07.976Z,3.90
2023-04-01T05:48:46.527Z,4.22
2023-04-01T05:51:15.673Z,4.22
2023-04-01T05:53:43.557Z,5.23
2023-04-01T05:56:10.684Z,11.77
2023-04-01T05:58:41.384Z,6.22
2023-04-01T06:01:15.843Z,5.88
2023-04-01T06:03:44.363Z,5.38
2023-04-01T06:06:25.312Z,4.60
2023-04-01T06:08:54.312Z,5.30
2023-04-01T06:11:50.371Z,7.07
2023-04-01T06:14:37.429Z,6.80
2023-04-01T06:17:36.479Z,5.78
2023-04-01T06:20:26.862Z,5.15
2023-04-01T06:23:09.483Z,4.35
2023-04-01T06:26:07.477Z,4.32
2023-04-01T06:29:25.105Z,3.88
2023-04-01T06:31:54.867Z,5.50
2023-04-01T06:35:05.676Z,5.80
2023-04-01T06:37:39.180Z,6.22
2023-04-01T06:40:25.065Z,6.93
2023-04-01T06:43:09.353Z,7.68
2023-04-01T06:46:47.850Z,6.05
2023-04-01T06:50:08.904Z,5.72
2023-04-01T06:53:36.849Z,5.32
2023-04-01T06:56:27.637Z,5.05
2023-04-01T06:59:16.624Z,5.47
2023-04-01T07:01:53.880Z,5.82
2023-04-01T07:04:27.765Z,5.05
2023-04-01T07:06:59.370Z,4.80
2023-04-01T07:09:33.398Z,5.15
2023-04-01T07:12:45.543Z,5.35
2023-04-01T07:15:52.821Z,4.82
2023-04-01T07:18:32.527Z,4.70
2023-04-01T07:23:37.361Z,3.28
2023-04-01T07:26:23.206Z,5.07
2023-04-01T07:29:12.062Z,3.40
2023-04-01T07:32:08.998Z,3.40
2023-04-01T07:35:13.139Z,5.13
2023-04-01T07:37:47.574Z,4.82
2023-04-01T07:40:21.579Z,5.20
2023-04-01T07:43:10.812Z,5.03
2023-04-01T07:45:46.392Z,3.65
2023-04-01T07:48:38.320Z,3.20
2023-04-01T07:51:41.612Z,3.35
2023-04-01T07:54:21.542Z,3.30
2023-04-01T07:57:17.681Z,3.53
2023-04-01T08:00:01.971Z,4.10
2023-04-01T08:03:18.463Z,3.85
2023-04-01T08:05:49.034Z,3.40
2023-04-01T08:08:29.410Z,3.72
2023-04-01T08:11:47.862Z,3.72
2023-04-01T08:15:01.817Z,3.78
2023-04-01T08:18:05.096Z,3.50
2023-04-01T08:20:43.787Z,3.13
2023-04-01T08:23:18.402Z,2.88
2023-04-01T08:25:54.044Z,2.70
2023-04-01T08:28:38.586Z,2.40
2023-04-01T08:31:15.420Z,3.08
2023-04-01T08:33:47.532Z,2.55
2023-04-01T08:36:18.127Z,2.45
2023-04-01T08:39:15.511Z,2.15
2023-04-01T08:41:42.508Z,2.78
2023-04-01T08:45:04.889Z,2.53
2023-04-01T08:47:54.365Z,2.80
2023-04-01T08:50:39.964Z,2.30
2023-04-01T08:54:00.208Z,2.65
2023-04-01T08:57:01.529Z,2.47
2023-04-01T08:59:48.960Z,2.40
2023-04-01T09:03:19.502Z,2.40
2023-04-01T09:06:13.923Z,2.00
2023-04-01T09:09:09.156Z,2.45
2023-04-01T09:12:00.511Z,2.38
2023-04-01T09:14:38.189Z,2.00
2023-04-01T09:17:53.194Z,2.20
2023-04-01T09:20:47.095Z,2.20
2023-04-01T09:23:42.051Z,2.00
2023-04-01T09:26:11.815Z,1.73
2023-04-01T09:29:15.678Z,1.83
2023-04-01T09:32:11.034Z,1.83
2023-04-01T09:35:35.269Z,2.30
2023-04-01T09:38:25.851Z,1.60
2023-04-01T09:40:57.173Z,1.67
2023-04-01T09:44:02.470Z,1.60
2023-04-01T09:46:49.376Z,1.45
2023-04-01T09:49:22.317Z,1.30
2023-04-01T09:51:56.196Z,1.45
2023-04-01T09:54:47.078Z,1.20
2023-04-01T09:57:22.995Z,1.40
2023-04-01T10:00:06.095Z,1.27
2023-04-01T10:03:13.823Z,0.90
2023-04-01T10:05:59.268Z,1.13
2023-04-01T10:08:53.024Z,1.20
2023-04-01T10:11:43.259Z,1.08
2023-04-01T10:14:23.815Z,1.10
2023-04-01T10:17:21.143Z,0.90
2023-04-01T10:20:01.858Z,0.88
2023-04-01T10:22:31.613Z,1.13
2023-04-01T10:25:16.941Z,1.00
2023-04-01T10:28:17.796Z,0.90
2023-04-01T10:31:28.032Z,1.00
2023-04-01T10:34:29.379Z,1.05
2023-04-01T10:37:23.858Z,0.90
2023-04-01T10:40:02.590Z,0.98
2023-04-01T10:43:11.794Z,0.90
2023-04-01T10:46:14.920Z,0.88
2023-04-01T10:49:02.363Z,0.90
2023-04-01T10:51:36.003Z,1.10
2023-04-01T10:54:21.642Z,1.50
2023-04-01T10:57:41.824Z,0.80
2023-04-01T11:00:51.528Z,0.80
2023-04-01T11:03:46.304Z,0.88
2023-04-01T11:06:59.320Z,1.17
2023-04-01T11:09:47.914Z,0.80
2023-04-01T11:12:50.555Z,0.85
2023-04-01T11:15:49.232Z,1.20
2023-04-01T11:18:48.849Z,0.98
2023-04-01T11:22:06.868Z,0.85
2023-04-01T11:25:10.202Z,0.90
2023-04-01T11:27:51.442Z,0.77
2023-04-01T11:30:45.490Z,0.80
2023-04-01T11:33:34.750Z,1.13
2023-04-01T11:36:07.675Z,1.00
2023-04-01T11:39:22.744Z,0.85
2023-04-01T11:42:27.746Z,0.90
2023-04-01T11:45:46.701Z,0.50
2023-04-01T11:48:53.502Z,0.50
2023-04-01T11:51:38.652Z,0.63
2023-04-01T11:54:29.457Z,0.60
2023-04-01T11:57:14.976Z,0.60
2023-04-01T12:00:00.444Z,0.50
2023-04-01T12:02:35.292Z,0.68
2023-04-01T12:05:17.438Z,0.63
2023-04-01T12:07:46.412Z,0.60
2023-04-01T12:10:40.486Z,0.80
2023-04-01T12:13:26.090Z,0.60
2023-04-01T12:16:17.785Z,0.50
2023-04-01T12:18:55.806Z,0.40
2023-04-01T12:22:07.845Z,0.38
2023-04-01T12:24:54.757Z,0.30
2023-04-01T12:27:44.927Z,0.20
2023-04-01T12:30:35.332Z,0.40
2023-04-01T12:33:23.507Z,1.30
2023-04-01T12:36:01.789Z,0.30
2023-04-01T12:38:48.882Z,0.20
2023-04-01T12:41:40.731Z,0.30
2023-04-01T12:44:29.803Z,0.20
2023-04-01T12:47:24.325Z,0.30
2023-04-01T12:50:17.555Z,0.10
2023-04-01T12:53:04.253Z,0.30
2023-04-01T12:55:43.039Z,0.60
2023-04-01T12:58:18.200Z,0.28
2023-04-01T13:00:57.290Z,0.40
2023-04-01T13:03:58.363Z,0.30
2023-04-01T13:06:34.798Z,0.30
2023-04-01T13:09:18.118Z,0.45
2023-04-01T13:12:11.093Z,0.20
2023-04-01T13:14:49.336Z,0.30
2023-04-01T13:17:16.136Z,0.30
2023-04-01T13:20:04.305Z,0.40
2023-04-01T13:23:00.128Z,0.75
2023-04-01T13:25:36.579Z,0.80
2023-04-01T13:28:32.077Z,0.20
2023-04-01T13:31:15.550Z,0.40
2023-04-01T13:34:07.517Z,0.40
2023-04-01T13:36:53.049Z,0.93
2023-04-01T13:39:41.711Z,0.80
2023-04-01T13:42:34.319Z,0.60
2023-04-01T13:45:12.274Z,0.35
2023-04-01T13:48:06.557Z,0.28
2023-04-01T13:51:07.106Z,0.90
2023-04-01T13:54:01.771Z,0.20
2023-04-01T13:56:53.498Z,0.25
2023-04-01T13:59:56.050Z,0.20
2023-04-01T14:02:46.126Z,0.17
2023-04-01T14:05:32.383Z,0.20
2023-04-01T14:09:00.965Z,0.20
2023-04-01T14:11:55.110Z,0.32
2023-04-01T14:14:40.924Z,0.40
2023-04-01T14:17:20.413Z,0.30
2023-04-01T14:19:54.744Z,0.80
2023-04-01T14:22:29.560Z,0.70
2023-04-01T14:25:31.682Z,0.60
2023-04-01T14:28:13.401Z,0.70
2023-04-01T14:31:03.551Z,0.52
2023-04-01T14:33:54.843Z,0.30
2023-04-01T14:36:44.627Z,1.33
2023-04-01T14:39:48.873Z,1.00
2023-04-01T14:42:22.060Z,0.60
2023-04-01T14:45:23.544Z,0.30
2023-04-01T14:47:59.588Z,0.70
2023-04-01T14:50:30.731Z,1.00
2023-04-01T14:53:12.727Z,0.60
2023-04-01T14:55:39.718Z,0.52
2023-04-01T14:58:15.199Z,0.40
2023-04-01T15:01:09.450Z,0.35
2023-04-01T15:03:51.329Z,0.68
2023-04-01T15:06:59.669Z,1.20
2023-04-01T15:09:45.356Z,0.98
2023-04-01T15:12:36.484Z,0.70
2023-04-01T15:15:21.972Z,0.75
2023-04-01T15:17:57.162Z,0.60
2023-04-01T15:20:48.152Z,0.40
2023-04-01T15:23:33.979Z,0.40
2023-04-01T15:26:03.558Z,0.70
2023-04-01T15:28:41.342Z,0.80
2023-04-01T15:31:17.739Z,0.95
2023-04-01T15:34:00.644Z,0.50
2023-04-01T15:36:50.494Z,0.80
2023-04-01T15:42:14.719Z,1.10
2023-04-01T15:44:53.447Z,1.00
2023-04-01T15:47:26.587Z,0.90
2023-04-01T15:49:59.009Z,1.83
2023-04-01T15:52:44.873Z,1.80
2023-04-01T15:55:39.173Z,1.30
2023-04-01T15:58:51.169Z,1.00
2023-04-01T16:01:30.138Z,2.67
2023-04-01T16:04:15.073Z,2.33
2023-04-01T16:07:09.524Z,2.17
2023-04-01T16:10:08.062Z,2.10
2023-04-01T16:12:46.396Z,2.00
2023-04-01T16:15:19.223Z,1.85
2023-04-01T16:18:02.648Z,1.83
2023-04-01T16:20:51.142Z,2.67
2023-04-01T16:24:12.227Z,4.70
2023-04-01T16:27:04.620Z,4.75
2023-04-01T16:29:46.029Z,4.80
2023-04-01T16:32:13.005Z,5.85
2023-04-01T16:34:47.231Z,5.60
2023-04-01T16:37:20.866Z,5.60
2023-04-01T16:39:52.205Z,8.00
2023-04-01T16:42:47.167Z,11.02
2023-04-01T16:45:21.115Z,16.95
2023-04-01T16:47:51.905Z,11.40
2023-04-01T16:50:18.845Z,5.57
2023-04-01T16:53:01.943Z,8.73
2023-04-01T16:56:06.516Z,9.13
2023-04-01T16:58:51.615Z,4.90
2023-04-01T17:01:24.124Z,4.55
2023-04-01T17:03:58.492Z,5.60
2023-04-01T17:06:37.365Z,7.13
2023-04-01T17:09:19.542Z,8.60
2023-04-01T17:11:57.260Z,7.53
2023-04-01T17:14:23.965Z,5.93
2023-04-01T17:17:11.400Z,5.78
2023-04-01T17:19:49.849Z,5.65
2023-04-01T17:22:44.540Z,3.92
2023-04-01T17:25:32.638Z,3.72
2023-04-01T17:28:06.248Z,3.92
2023-04-01T17:30:56.320Z,3.10
2023-04-01T17:33:41.592Z,3.42
2023-04-01T17:36:39.735Z,3.40
2023-04-01T17:39:17.075Z,4.30
2023-04-01T17:41:51.336Z,3.42
2023-04-01T17:44:48.549Z,3.28
2023-04-01T17:47:21.410Z,3.00
2023-04-01T17:50:26.021Z,3.42
2023-04-01T17:52:52.805Z,3.25
2023-04-01T17:55:34.740Z,3.00
2023-04-01T17:58:10.955Z,3.33
2023-04-01T18:06:08.921Z,2.90
2023-04-01T18:09:01.882Z,3.63
2023-04-01T18:12:06.326Z,3.28
2023-04-01T18:14:51.087Z,3.20
2023-04-01T18:17:46.246Z,4.20
2023-04-01T18:20:59.204Z,5.90
2023-04-01T18:23:36.302Z,3.88
2023-04-01T18:26:14.764Z,3.70
2023-04-01T18:29:12.937Z,4.50
2023-04-01T18:31:44.982Z,4.25
2023-04-01T18:34:22.249Z,4.20
2023-04-01T18:36:54.401Z,4.50
2023-04-01T18:39:36.921Z,4.70
2023-04-01T18:42:43.837Z,4.50
2023-04-01T18:45:16.943Z,4.43
2023-04-01T18:48:07.960Z,4.28
2023-04-01T18:50:58.952Z,4.38
2023-04-01T18:54:10.768Z,5.45
2023-04-01T18:56:46.192Z,5.65
2023-04-01T18:59:22.878Z,4.60
2023-04-01T19:02:05.985Z,4.90
2023-04-01T19:05:09.908Z,4.50
2023-04-01T19:07:51.982Z,4.07
2023-04-01T19:10:39.295Z,5.65
2023-04-01T19:13:31.187Z,5.28
2023-04-01T19:16:05.145Z,5.13
2023-04-01T19:18:42.027Z,4.95
2023-04-01T19:21:27.098Z,4.53
2023-04-01T19:24:32.908Z,3.67
2023-04-01T19:27:09.088Z,4.47
2023-04-01T19:29:48.592Z,3.17
2023-04-01T19:32:15.552Z,3.95
2023-04-01T19:34:48.244Z,3.95
2023-04-01T19:37:31.679Z,4.22
2023-04-01T19:40:32.895Z,3.92
2023-04-01T19:43:10.029Z,5.32
2023-04-01T19:45:42.691Z,4.50
2023-04-01T19:48:21.726Z,4.30
2023-04-01T19:51:27.138Z,4.00
2023-04-01T19:54:12.128Z,4.22
2023-04-01T19:57:00.034Z,4.13
2023-04-01T19:59:56.114Z,2.88
2023-04-01T20:02:54.212Z,3.17
2023-04-01T20:05:21.542Z,2.90
2023-04-01T20:07:55.930Z,2.75
2023-04-01T20:10:58.171Z,4.22
2023-04-01T20:13:43.200Z,5.38
2023-04-01T20:16:12.732Z,3.88
2023-04-01T20:18:39.537Z,4.10
2023-04-01T20:21:33.110Z,3.72
2023-04-01T20:24:25.527Z,3.60
2023-04-01T20:27:22.199Z,4.20
2023-04-01T20:29:48.994Z,3.10
2023-04-01T20:32:55.428Z,3.20
2023-04-01T20:35:51.390Z,3.65
2023-04-01T20:38:32.108Z,3.40
2023-04-01T20:41:09.034Z,3.80
2023-04-01T20:44:03.821Z,4.32
2023-04-01T20:46:52.853Z,3.30
2023-04-01T20:49:25.635Z,3.20
2023-04-01T20:52:14.553Z,3.70
2023-04-01T20:54:59.677Z,5.22
2023-04-01T20:57:31.848Z,4.75
2023-04-01T21:00:03.539Z,4.07
2023-04-01T21:02:49.095Z,3.67
2023-04-01T21:05:43.293Z,4.75
2023-04-01T21:08:23.574Z,4.20
2023-04-01T21:11:08.661Z,3.72
2023-04-01T21:13:50.821Z,3.35
2023-04-01T21:16:53.142Z,2.90
2023-04-01T21:19:42.399Z,2.53
2023-04-01T21:22:34.464Z,2.35
2023-04-01T21:25:30.322Z,2.33
2023-04-01T21:28:04.313Z,2.33
2023-04-01T21:30:52.773Z,2.10
2023-04-01T21:33:37.924Z,1.90
2023-04-01T21:36:20.501Z,2.30
2023-04-01T21:39:12.159Z,2.00
2023-04-01T21:42:00.822Z,2.13
2023-04-01T21:44:51.804Z,2.35
2023-04-01T21:47:58.811Z,2.28
2023-04-01T21:50:43.832Z,2.45
2023-04-01T21:53:34.997Z,2.38
2023-04-01T21:56:49.993Z,2.22
2023-04-01T21:59:42.328Z,1.95
2023-04-01T22:02:24.408Z,2.25
2023-04-01T22:05:21.490Z,2.75
2023-04-01T22:08:00.369Z,2.45
2023-04-01T22:10:42.547Z,2.65
2023-04-01T22:13:32.151Z,2.50
2023-04-01T22:16:17.195Z,2.28
2023-04-01T22:18:54.267Z,2.17
2023-04-01T22:21:53.158Z,2.63
2023-04-01T22:24:32.020Z,2.45
2023-04-01T22:27:27.339Z,2.25
2023-04-01T22:30:04.498Z,3.00
2023-04-01T22:32:46.609Z,2.90
2023-04-01T22:35:35.278Z,3.00
2023-04-01T22:38:37.789Z,2.30
2023-04-01T22:41:16.657Z,3.28
2023-04-01T22:43:48.559Z,3.25
2023-04-01T22:46:27.714Z,3.90
2023-04-01T22:49:17.526Z,3.40
2023-04-01T22:51:53.186Z,3.78
2023-04-01T22:54:33.798Z,4.43
2023-04-01T22:57:16.317Z,5.72
2023-04-01T23:00:09.241Z,5.47
2023-04-01T23:03:00.348Z,8.25
2023-04-01T23:05:28.115Z,6.53
2023-04-01T23:08:21.496Z,6.25
2023-04-01T23:10:55.231Z,5.50
2023-04-01T23:13:29.264Z,5.00
2023-04-01T23:15:56.818Z,5.85
2023-04-01T23:19:01.601Z,5.78
2023-04-01T23:21:45.965Z,4.40
2023-04-01T23:24:35.031Z,2.60
2023-04-01T23:27:24.595Z,2.60
2023-04-01T23:29:52.495Z,2.35
2023-04-01T23:32:23.383Z,2.63
2023-04-01T23:34:52.213Z,2.80
2023-04-01T23:37:20.361Z,2.50
2023-04-01T23:39:51.281Z,2.50
2023-04-01T23:42:25.779Z,2.65
2023-04-01T23:44:56.751Z,2.55
2023-04-01T23:47:27.860Z,2.60
2023-04-01T23:50:00.080Z,2.40
2023-04-01T23:52:31.914Z,2.42
2023-04-01T23:55:16.952Z,2.17
2023-04-01T23:58:01.292Z,2.15
